createdAt,value
2023-02-13T00:03:39.631Z,47.45
2023-02-13T00:08:43.073Z,53.30
2023-02-13T00:13:46.782Z,43.53
2023-02-13T00:23:52.988Z,31.40
2023-02-13T00:28:58.000Z,35.53
2023-02-13T00:34:01.451Z,31.50
2023-02-13T00:39:04.863Z,36.08
2023-02-13T00:44:10.329Z,32.08
2023-02-13T00:49:13.650Z,35.58
2023-02-13T00:54:17.098Z,36.17
2023-02-13T00:59:20.644Z,54.22
2023-02-13T01:04:24.659Z,66.35
2023-02-13T01:09:29.386Z,69.72
2023-02-13T01:14:32.747Z,38.35
2023-02-13T01:19:35.871Z,32.67
2023-02-13T01:24:38.921Z,27.55
2023-02-13T01:29:41.823Z,34.35
2023-02-13T01:34:49.478Z,33.28
2023-02-13T01:39:54.941Z,42.65
2023-02-13T01:45:01.524Z,35.20
2023-02-13T01:50:22.344Z,33.13
2023-02-13T01:55:27.344Z,30.35
2023-02-13T02:00:32.043Z,34.35
2023-02-13T02:05:36.937Z,29.13
2023-02-13T02:10:41.838Z,34.25
2023-02-13T02:15:51.037Z,24.35
2023-02-13T02:21:10.737Z,23.98
2023-02-13T02:26:35.454Z,19.35
2023-02-13T02:32:10.191Z,20.10
2023-02-13T02:37:45.567Z,19.10
2023-02-13T02:43:01.359Z,18.50
2023-02-13T02:48:38.553Z,15.50
2023-02-13T02:53:58.662Z,16.55
2023-02-13T02:59:27.176Z,15.68
2023-02-13T03:04:58.999Z,16.88
2023-02-13T03:10:42.348Z,15.82
2023-02-13T03:16:06.161Z,14.90
2023-02-13T03:21:40.110Z,13.95
2023-02-13T03:26:55.968Z,16.60
2023-02-13T03:32:24.677Z,14.45
2023-02-13T03:37:51.798Z,17.63
2023-02-13T03:43:10.006Z,17.20
2023-02-13T03:48:35.436Z,19.48
2023-02-13T03:53:42.131Z,18.90
2023-02-13T03:59:07.963Z,20.83
2023-02-13T04:04:31.754Z,17.75
2023-02-13T04:09:38.544Z,21.85
2023-02-13T04:14:52.044Z,18.52
2023-02-13T04:19:55.714Z,17.15
2023-02-13T04:24:59.443Z,18.40
2023-02-13T04:30:02.550Z,18.02
2023-02-13T04:35:06.876Z,19.17
2023-02-13T04:40:11.375Z,14.70
2023-02-13T04:45:14.522Z,19.55
2023-02-13T04:50:17.838Z,15.82
2023-02-13T04:55:21.397Z,18.08
2023-02-13T05:00:27.175Z,18.92
2023-02-13T05:05:30.224Z,18.80
2023-02-13T05:10:36.197Z,17.98
2023-02-13T05:15:40.818Z,15.05
2023-02-13T05:20:44.256Z,15.88
2023-02-13T05:25:48.081Z,14.68
2023-02-13T05:30:57.473Z,12.95
2023-02-13T05:36:01.625Z,16.35
2023-02-13T05:41:05.094Z,18.45
2023-02-13T05:46:12.844Z,16.05
2023-02-13T05:51:16.312Z,17.13
2023-02-13T06:01:23.693Z,16.90
2023-02-13T06:06:27.105Z,16.20
2023-02-13T06:11:30.827Z,14.70
2023-02-13T06:16:35.160Z,16.45
2023-02-13T06:21:38.888Z,14.98
2023-02-13T06:26:43.527Z,15.25
2023-02-13T06:31:47.120Z,21.42
2023-02-13T06:36:53.009Z,20.85
2023-02-13T06:41:57.094Z,17.20
2023-02-13T06:47:01.490Z,14.82
2023-02-13T06:52:04.997Z,19.40
2023-02-13T06:57:09.178Z,19.63
2023-02-13T07:02:13.718Z,17.83
2023-02-13T07:07:20.820Z,16.30
2023-02-13T07:12:25.182Z,17.60
2023-02-13T07:17:28.273Z,14.27
2023-02-13T07:22:35.433Z,11.63
2023-02-13T07:44:05.989Z,13.73
2023-02-13T08:09:40.978Z,12.27
2023-02-13T08:14:44.898Z,10.75
2023-02-13T08:20:34.564Z,12.05
2023-02-13T08:26:39.328Z,11.18
2023-02-13T08:45:55.126Z,18.20
2023-02-13T08:51:17.894Z,23.48
2023-02-13T09:03:53.506Z,11.45
2023-02-13T09:09:51.411Z,7.93
2023-02-13T09:15:41.715Z,12.55
2023-02-13T09:29:02.046Z,9.05
2023-02-13T10:03:12.945Z,14.07
2023-02-13T10:17:25.129Z,17.92
2023-02-13T10:23:36.133Z,16.77
2023-02-13T10:30:16.082Z,15.60
2023-02-13T10:57:26.473Z,20.80
2023-02-13T11:23:52.316Z,25.35
2023-02-13T11:29:02.168Z,28.55
2023-02-13T11:34:29.442Z,31.65
2023-02-13T11:39:42.483Z,30.60
2023-02-13T11:44:52.042Z,22.88
2023-02-13T11:49:55.095Z,30.88
2023-02-13T11:55:30.152Z,43.63
2023-02-13T12:00:45.302Z,24.23
2023-02-13T12:34:47.982Z,27.08
2023-02-13T12:41:45.602Z,31.88
2023-02-13T12:57:16.748Z,70.47
2023-02-13T13:02:58.890Z,87.70
2023-02-13T13:09:15.491Z,99.55
2023-02-13T13:16:39.418Z,61.03
2023-02-13T13:23:30.815Z,29.75
2023-02-13T13:30:35.785Z,37.28
2023-02-13T13:36:36.781Z,42.00
2023-02-13T13:49:52.126Z,37.85
2023-02-13T14:02:24.258Z,32.50
2023-02-13T14:13:58.486Z,27.92
2023-02-13T14:19:04.048Z,25.35
2023-02-13T14:24:13.968Z,29.20
2023-02-13T14:29:49.338Z,28.65
2023-02-13T14:55:17.929Z,30.75
2023-02-13T15:01:30.700Z,36.08
2023-02-13T15:07:04.478Z,34.28
2023-02-13T15:14:41.617Z,39.10
2023-02-13T15:20:17.564Z,146.50
2023-02-13T15:26:03.369Z,285.33
2023-02-13T15:32:21.737Z,325.33
2023-02-13T15:38:49.756Z,116.78
2023-02-13T15:44:44.979Z,133.75
2023-02-13T15:50:07.135Z,178.00
2023-02-13T15:55:33.906Z,407.88
2023-02-13T16:00:47.913Z,161.75
2023-02-13T16:12:27.627Z,65.30
2023-02-13T16:18:59.819Z,58.70
2023-02-13T16:44:17.188Z,32.53
2023-02-13T16:50:24.813Z,30.52
2023-02-13T16:56:15.631Z,24.65
2023-02-13T17:02:40.588Z,26.35
2023-02-13T17:15:35.308Z,43.83
2023-02-13T17:21:06.080Z,45.38
2023-02-13T17:46:33.373Z,64.35
2023-02-13T18:13:11.675Z,45.45
2023-02-13T18:25:51.131Z,57.55
2023-02-13T18:57:25.262Z,50.38
2023-02-13T19:02:29.353Z,36.55
2023-02-13T19:07:47.176Z,32.30
2023-02-13T19:13:16.274Z,28.27
2023-02-13T19:18:56.882Z,25.95
2023-02-13T19:24:21.950Z,33.83
2023-02-13T19:29:34.539Z,34.95
2023-02-13T19:34:56.070Z,28.23
2023-02-13T19:47:24.490Z,28.10
2023-02-13T20:05:23.781Z,26.20
2023-02-13T20:10:28.214Z,24.67
2023-02-13T20:16:35.205Z,30.08
2023-02-13T20:22:35.645Z,30.73
2023-02-13T20:27:55.582Z,20.52
2023-02-13T20:33:03.507Z,20.45
2023-02-13T20:38:14.247Z,20.38
2023-02-13T20:43:33.302Z,20.83
2023-02-13T20:48:47.342Z,55.97
2023-02-13T20:54:10.626Z,28.70
2023-02-13T20:59:51.367Z,21.35
2023-02-13T21:05:12.501Z,22.02
2023-02-13T21:10:20.781Z,23.42
2023-02-13T21:15:30.056Z,27.55
2023-02-13T21:46:37.055Z,32.05
2023-02-13T21:52:17.322Z,35.95
2023-02-13T21:58:07.967Z,42.45
2023-02-13T22:23:27.697Z,40.45
2023-02-13T22:35:27.411Z,39.08
2023-02-13T22:52:31.365Z,31.88
2023-02-13T22:58:23.077Z,39.38
2023-02-13T23:03:55.901Z,35.20
2023-02-13T23:18:22.921Z,41.75
2023-02-13T23:24:16.126Z,36.60
2023-02-13T23:29:55.523Z,39.53
2023-02-13T23:35:16.745Z,36.78
2023-02-13T23:40:20.373Z,35.05
2023-02-13T23:45:33.813Z,33.60
2023-02-13T23:50:49.618Z,32.77
